Time;durP1;ratioP1;P1;durP2;ratioP2;P2;SDS_P1;SDS_P2;PMS_P1;PMS_P2;Temp;Humidity;BMP_temperature;BMP_pressure;BME280_temperature;BME280_humidity;BME280_pressure;Samples;Min_cycle;Max_cycle;Signal;HPM_P1;HPM_P2
2022/05/15 00:02:20;;;;;;;6.47;4.17;;;12.20;99.90;;;;;;5226036;28;20321;-51
2022/05/15 00:04:50;;;;;;;6.63;3.30;;;12.10;99.90;;;;;;5214757;28;20521;-50
2022/05/15 00:07:21;;;;;;;6.77;3.40;;;12.00;99.90;;;;;;5227031;28;20187;-51
2022/05/15 00:09:52;;;;;;;8.13;3.30;;;12.00;99.90;;;;;;5218971;28;20202;-50
2022/05/15 00:12:23;;;;;;;3.00;2.73;;;12.00;99.90;;;;;;5225751;28;20433;-50
2022/05/15 00:14:53;;;;;;;4.17;2.67;;;11.90;99.90;;;;;;5221676;28;20187;-49
2022/05/15 00:17:24;;;;;;;11.03;3.50;;;11.90;99.90;;;;;;5221424;28;20348;-51
2022/05/15 00:19:54;;;;;;;6.30;3.27;;;11.80;99.90;;;;;;5221527;28;20651;-48
2022/05/15 00:22:25;;;;;;;10.73;3.70;;;11.80;99.90;;;;;;5223364;28;20175;-52
2022/05/15 00:24:55;;;;;;;5.17;3.00;;;11.80;99.90;;;;;;5219757;28;20191;-52
2022/05/15 00:27:26;;;;;;;5.37;3.33;;;11.70;99.90;;;;;;5222170;28;20643;-51
2022/05/15 00:29:56;;;;;;;4.97;3.50;;;11.70;99.90;;;;;;5220233;28;20234;-50
2022/05/15 00:32:27;;;;;;;8.70;4.37;;;11.60;99.90;;;;;;5223800;28;20646;-50
2022/05/15 00:34:58;;;;;;;6.17;4.00;;;11.60;99.90;;;;;;5215304;28;20262;-49
2022/05/15 00:37:28;;;;;;;7.53;3.20;;;11.70;99.90;;;;;;5222007;28;20215;-49
2022/05/15 00:39:59;;;;;;;10.30;3.57;;;11.60;99.90;;;;;;5224825;28;20238;-51
2022/05/15 00:42:29;;;;;;;8.33;3.00;;;11.50;99.90;;;;;;5222955;28;20230;-50
2022/05/15 00:45:00;;;;;;;11.37;4.00;;;11.40;99.90;;;;;;5222600;28;20211;-51
2022/05/15 00:47:31;;;;;;;6.40;3.47;;;11.40;99.90;;;;;;5214135;28;20207;-50
2022/05/15 00:50:05;;;;;;;8.63;3.87;;;11.40;99.90;;;;;;5224625;28;20210;-49
2022/05/15 00:52:39;;;;;;;9.47;4.00;;;11.40;99.90;;;;;;5223924;28;20438;-51
2022/05/15 00:55:33;;;;;;;10.80;3.63;;;11.40;99.90;;;;;;5220998;28;20955;-49
2022/05/15 00:58:10;;;;;;;10.17;3.90;;;11.40;99.90;;;;;;5209887;28;20450;-50
2022/05/15 01:00:42;;;;;;;10.00;4.37;;;11.50;99.90;;;;;;5220332;28;20915;-52
2022/05/15 01:03:18;;;;;;;8.60;4.83;;;11.50;99.90;;;;;;5218022;28;20438;-50
2022/05/15 01:05:56;;;;;;;17.40;5.33;;;11.50;99.90;;;;;;5215682;28;20440;-50
2022/05/15 01:08:28;;;;;;;9.10;5.53;;;11.60;99.90;;;;;;5234037;28;20567;-49
2022/05/15 01:11:10;;;;;;;18.33;5.43;;;11.60;99.90;;;;;;5219739;28;20438;-50
2022/05/15 01:13:42;;;;;;;16.23;5.10;;;11.60;99.90;;;;;;5214498;28;20445;-51
2022/05/15 01:16:19;;;;;;;7.53;4.90;;;11.60;99.90;;;;;;5225414;28;20467;-50
2022/05/15 01:18:54;;;;;;;7.33;4.07;;;11.60;99.90;;;;;;5214921;28;20498;-50
2022/05/15 01:21:38;;;;;;;7.90;4.93;;;11.60;99.90;;;;;;5219679;28;20468;-50
2022/05/15 01:24:09;;;;;;;10.83;4.70;;;11.60;99.90;;;;;;5223038;28;20434;-51
2022/05/15 01:26:39;;;;;;;4.87;4.30;;;11.60;99.90;;;;;;5220539;28;20437;-51
2022/05/15 01:29:10;;;;;;;7.83;3.83;;;11.60;99.90;;;;;;5217851;28;20476;-49
2022/05/15 01:31:42;;;;;;;8.43;4.10;;;11.50;99.90;;;;;;5213844;28;20608;-51
2022/05/15 01:34:12;;;;;;;10.63;3.77;;;11.50;99.90;;;;;;5222130;28;20807;-50
2022/05/15 01:36:43;;;;;;;16.97;3.80;;;11.50;99.90;;;;;;5218214;28;20473;-50
2022/05/15 01:39:14;;;;;;;9.30;3.73;;;11.50;99.90;;;;;;5206912;28;20632;-50
2022/05/15 01:41:44;;;;;;;8.00;3.87;;;11.50;99.90;;;;;;5221594;28;20187;-50
2022/05/15 01:44:15;;;;;;;14.17;4.10;;;11.40;99.90;;;;;;5213894;28;20180;-50
2022/05/15 01:46:46;;;;;;;7.40;4.10;;;11.40;99.90;;;;;;5223415;28;20194;-49
2022/05/15 01:49:16;;;;;;;7.03;3.80;;;11.40;99.90;;;;;;5224431;28;20561;-50
2022/05/15 01:51:47;;;;;;;8.63;3.83;;;11.40;99.90;;;;;;5212102;28;20188;-50
2022/05/15 01:54:18;;;;;;;10.00;3.33;;;11.30;99.90;;;;;;5222683;28;20211;-50
2022/05/15 01:56:48;;;;;;;10.23;4.20;;;11.20;99.90;;;;;;5221731;28;20211;-50
2022/05/15 01:59:19;;;;;;;6.70;3.40;;;11.20;99.90;;;;;;5217421;28;20191;-50
2022/05/15 02:01:50;;;;;;;10.73;3.40;;;11.20;99.90;;;;;;5219383;28;20596;-51
2022/05/15 02:04:20;;;;;;;8.60;2.70;;;11.20;99.90;;;;;;5224040;28;20585;-50
2022/05/15 02:06:51;;;;;;;4.50;3.13;;;11.20;99.90;;;;;;5222942;28;20213;-50
2022/05/15 02:09:21;;;;;;;3.70;2.40;;;11.20;99.90;;;;;;5219248;28;20553;-49
2022/05/15 02:11:52;;;;;;;8.77;2.87;;;11.20;99.90;;;;;;5220436;28;20183;-49
2022/05/15 02:14:23;;;;;;;3.47;1.57;;;11.20;99.90;;;;;;5221834;28;20175;-49
2022/05/15 02:16:54;;;;;;;3.50;2.30;;;11.20;99.90;;;;;;5225344;28;20203;-50
2022/05/15 02:19:24;;;;;;;10.00;2.43;;;11.10;99.90;;;;;;5216365;28;20210;-50
2022/05/15 02:21:54;;;;;;;7.20;2.90;;;11.10;99.90;;;;;;5234027;28;20432;-49
2022/05/15 02:24:25;;;;;;;9.87;2.73;;;11.10;99.90;;;;;;5227115;28;20198;-49
2022/05/15 02:26:56;;;;;;;7.87;2.13;;;11.10;99.90;;;;;;5213971;28;20606;-51
2022/05/15 02:29:26;;;;;;;5.30;2.80;;;11.10;99.90;;;;;;5223372;28;20699;-49
2022/05/15 02:31:57;;;;;;;7.50;3.10;;;11.10;99.90;;;;;;5238810;28;20197;-49
2022/05/15 02:34:27;;;;;;;6.10;2.27;;;11.10;99.90;;;;;;5220487;28;20244;-50
2022/05/15 02:36:58;;;;;;;7.17;2.37;;;11.10;99.90;;;;;;5236492;28;20256;-51
2022/05/15 02:39:28;;;;;;;3.33;2.60;;;11.00;99.90;;;;;;5223831;28;20202;-49
2022/05/15 02:42:01;;;;;;;6.40;2.80;;;11.00;99.90;;;;;;5217887;28;20229;-50
2022/05/15 02:44:32;;;;;;;7.40;3.53;;;11.00;99.90;;;;;;5225969;28;20652;-49
2022/05/15 02:47:03;;;;;;;9.03;3.10;;;11.00;99.90;;;;;;5227318;28;20442;-49
2022/05/15 02:52:23;;;;;;;8.87;3.40;;;10.90;99.90;;;;;;5221983;28;20510;-50
2022/05/15 02:54:54;;;;;;;7.83;3.43;;;10.90;99.90;;;;;;5234949;28;20442;-52
2022/05/15 02:57:24;;;;;;;6.63;3.00;;;10.90;99.90;;;;;;5221105;28;20210;-51
2022/05/15 02:59:55;;;;;;;7.50;3.40;;;10.80;99.90;;;;;;5234885;28;20215;-50
2022/05/15 03:02:25;;;;;;;13.13;3.60;;;10.80;99.90;;;;;;5221597;28;20230;-51
2022/05/15 03:04:56;;;;;;;5.43;2.87;;;10.80;99.90;;;;;;5225638;28;20649;-50
2022/05/15 03:07:26;;;;;;;9.97;2.90;;;10.80;99.90;;;;;;5226791;28;20258;-50
2022/05/15 03:09:57;;;;;;;8.80;3.10;;;10.80;99.90;;;;;;5219297;28;20794;-52
2022/05/15 03:12:27;;;;;;;7.63;3.40;;;10.80;99.90;;;;;;5227949;28;20191;-51
2022/05/15 03:14:58;;;;;;;6.07;3.10;;;10.80;99.90;;;;;;5226953;28;20277;-51
2022/05/15 03:17:29;;;;;;;2.80;2.50;;;10.70;99.90;;;;;;5228501;28;20210;-50
2022/05/15 03:19:59;;;;;;;3.80;2.90;;;10.70;99.90;;;;;;5219584;28;20207;-50
2022/05/15 03:22:30;;;;;;;4.47;2.73;;;10.80;99.90;;;;;;5221117;28;20651;-48
2022/05/15 03:25:00;;;;;;;5.00;2.90;;;10.80;99.90;;;;;;5205741;28;20208;-49
2022/05/15 03:27:31;;;;;;;8.03;3.23;;;10.80;99.90;;;;;;5224908;28;20579;-49
2022/05/15 03:30:03;;;;;;;8.73;3.30;;;10.80;99.90;;;;;;5225320;28;20309;-49
2022/05/15 03:32:35;;;;;;;2.67;2.47;;;10.80;99.90;;;;;;5221510;28;20183;-49
2022/05/15 03:35:08;;;;;;;4.43;3.37;;;10.80;99.90;;;;;;5222636;28;20445;-50
2022/05/15 03:37:39;;;;;;;4.30;3.13;;;10.80;99.90;;;;;;5227605;28;20492;-49
2022/05/15 03:40:16;;;;;;;16.97;3.33;;;10.80;99.90;;;;;;5222195;28;20502;-48
2022/05/15 03:42:47;;;;;;;10.40;3.80;;;10.80;99.90;;;;;;5227270;28;20183;-50
2022/05/15 03:45:17;;;;;;;4.93;2.30;;;10.80;99.90;;;;;;5224185;28;20442;-49
2022/05/15 03:47:53;;;;;;;11.90;3.33;;;10.80;99.90;;;;;;5217670;28;20219;-51
2022/05/15 03:50:26;;;;;;;5.37;3.70;;;10.80;99.90;;;;;;5222572;28;20207;-50
2022/05/15 03:52:57;;;;;;;4.57;2.90;;;10.80;99.90;;;;;;5222747;28;20448;-53
2022/05/15 03:55:28;;;;;;;6.83;2.47;;;10.80;99.90;;;;;;5227924;28;20434;-53
2022/05/15 03:57:58;;;;;;;9.13;3.80;;;10.80;99.90;;;;;;5225944;28;20198;-54
2022/05/15 04:00:29;;;;;;;7.47;3.70;;;10.80;99.90;;;;;;5225377;28;20211;-53
2022/05/15 04:03:01;;;;;;;5.67;3.07;;;10.90;99.90;;;;;;5225029;28;20191;-53
2022/05/15 04:05:32;;;;;;;11.43;3.50;;;10.90;99.90;;;;;;5215808;28;20447;-54
2022/05/15 04:08:03;;;;;;;6.77;3.20;;;10.90;99.90;;;;;;5217070;28;20434;-53
2022/05/15 04:10:35;;;;;;;7.53;3.03;;;11.00;99.90;;;;;;5214373;28;20824;-54
2022/05/15 04:13:05;;;;;;;3.70;3.07;;;11.10;99.90;;;;;;5234812;28;20214;-54
2022/05/15 04:15:36;;;;;;;9.60;3.60;;;11.10;99.90;;;;;;5224842;28;20865;-54
2022/05/15 04:18:09;;;;;;;5.53;2.73;;;11.20;99.90;;;;;;5222089;28;20182;-53
2022/05/15 04:20:39;;;;;;;8.17;3.40;;;11.20;99.90;;;;;;5219360;28;20194;-54
2022/05/15 04:23:10;;;;;;;8.80;3.40;;;11.30;99.90;;;;;;5218417;28;20587;-55
2022/05/15 04:25:40;;;;;;;4.40;2.37;;;11.40;99.90;;;;;;5218677;28;20258;-53
2022/05/15 04:28:11;;;;;;;6.87;2.77;;;11.40;99.90;;;;;;5223358;28;20236;-53
2022/05/15 04:30:41;;;;;;;10.17;3.67;;;11.50;99.90;;;;;;5223773;28;20222;-54
2022/05/15 04:33:12;;;;;;;12.00;3.00;;;11.50;99.90;;;;;;5224786;28;20182;-54
2022/05/15 04:35:42;;;;;;;12.13;3.03;;;11.60;99.90;;;;;;5216069;28;20211;-53
2022/05/15 04:38:13;;;;;;;9.13;3.10;;;11.60;99.90;;;;;;5223594;28;20187;-53
2022/05/15 04:40:43;;;;;;;3.50;2.63;;;11.70;99.90;;;;;;5215041;28;20182;-54
2022/05/15 04:43:14;;;;;;;3.10;2.50;;;11.80;99.90;;;;;;5218494;28;20321;-53
2022/05/15 04:45:45;;;;;;;4.90;3.23;;;11.90;99.90;;;;;;5207323;28;20305;-50
2022/05/15 04:48:16;;;;;;;8.43;2.67;;;12.00;99.90;;;;;;5213846;28;20232;-53
2022/05/15 04:50:47;;;;;;;8.17;2.50;;;12.40;99.90;;;;;;5215560;28;20782;-50
2022/05/15 04:53:17;;;;;;;8.77;2.40;;;13.70;99.90;;;;;;5225033;28;20536;-53
2022/05/15 04:55:48;;;;;;;4.33;1.80;;;15.60;99.90;;;;;;5223932;28;20202;-51
2022/05/15 04:58:18;;;;;;;6.80;1.97;;;17.80;94.30;;;;;;5227980;28;20209;-52
2022/05/15 05:00:49;;;;;;;5.63;2.20;;;19.90;71.60;;;;;;5229024;28;20175;-53
2022/05/15 05:03:20;;;;;;;3.33;2.00;;;21.30;57.00;;;;;;5214372;28;20232;-51
2022/05/15 05:05:51;;;;;;;11.87;2.57;;;22.10;51.80;;;;;;5223177;28;20441;-49
2022/05/15 05:08:21;;;;;;;4.40;2.10;;;22.30;48.70;;;;;;5221063;28;20204;-54
2022/05/15 05:10:52;;;;;;;8.53;1.80;;;23.20;48.50;;;;;;5218648;28;20269;-52
2022/05/15 05:13:23;;;;;;;1.90;1.60;;;24.40;45.90;;;;;;5221113;28;20179;-54
2022/05/15 05:15:53;;;;;;;6.37;1.93;;;25.50;42.50;;;;;;5217270;28;20214;-53
2022/05/15 05:18:24;;;;;;;9.67;2.43;;;25.50;40.50;;;;;;5221039;28;20219;-53
2022/05/15 05:20:54;;;;;;;2.00;1.70;;;25.50;40.40;;;;;;5215777;28;20183;-54
2022/05/15 05:23:25;;;;;;;2.90;1.60;;;25.70;39.40;;;;;;5216381;28;20181;-54
2022/05/15 05:25:55;;;;;;;3.30;1.93;;;26.30;39.30;;;;;;5221760;28;20320;-52
2022/05/15 05:28:27;;;;;;;3.17;1.90;;;26.50;38.70;;;;;;5213734;28;20216;-53
2022/05/15 05:30:58;;;;;;;2.67;1.53;;;26.70;37.40;;;;;;5237519;28;20557;-53
2022/05/15 05:33:29;;;;;;;6.00;2.47;;;26.50;37.70;;;;;;5212340;28;20534;-54
2022/05/15 05:35:59;;;;;;;3.17;1.90;;;26.70;37.20;;;;;;5216916;28;20465;-54
2022/05/15 05:38:30;;;;;;;4.83;2.17;;;27.00;36.00;;;;;;5220449;28;20666;-53
2022/05/15 05:41:00;;;;;;;4.60;1.70;;;27.00;35.90;;;;;;5225706;28;20602;-54
2022/05/15 05:43:32;;;;;;;2.13;1.20;;;26.70;36.20;;;;;;5212337;28;20317;-54
2022/05/15 05:46:02;;;;;;;5.00;1.80;;;26.70;37.70;;;;;;5215934;28;20191;-54
2022/05/15 05:48:33;;;;;;;4.93;1.80;;;27.80;35.70;;;;;;5222352;28;20459;-54
2022/05/15 05:51:04;;;;;;;1.87;1.80;;;28.20;34.70;;;;;;5223499;28;20182;-54
2022/05/15 05:53:34;;;;;;;6.67;2.17;;;28.80;33.80;;;;;;5227513;28;20187;-55
2022/05/15 05:56:05;;;;;;;1.77;1.40;;;28.60;33.10;;;;;;5227729;28;20225;-54
2022/05/15 05:58:36;;;;;;;6.10;1.63;;;29.10;34.30;;;;;;5217131;28;20276;-55
2022/05/15 06:01:07;;;;;;;5.10;1.90;;;29.90;32.00;;;;;;5227483;28;20174;-52
2022/05/15 06:06:27;;;;;;;4.20;1.83;;;30.10;30.40;;;;;;5214429;28;20457;-53
2022/05/15 06:08:57;;;;;;;2.70;1.67;;;30.20;30.60;;;;;;5220816;28;20479;-54
2022/05/15 06:11:28;;;;;;;7.33;2.00;;;29.60;30.80;;;;;;5215778;28;20671;-55
2022/05/15 06:13:58;;;;;;;2.03;1.47;;;29.50;31.40;;;;;;5222805;28;20651;-53
2022/05/15 06:16:31;;;;;;;2.40;1.30;;;30.40;30.60;;;;;;5220490;28;20281;-54
2022/05/15 06:19:02;;;;;;;3.03;1.77;;;31.30;29.80;;;;;;5221325;28;20198;-53
2022/05/15 06:21:32;;;;;;;5.47;1.43;;;30.90;28.80;;;;;;5210821;28;20460;-51
2022/05/15 06:24:03;;;;;;;3.73;1.70;;;31.30;29.50;;;;;;5215178;28;20183;-53
2022/05/15 06:26:33;;;;;;;1.63;1.37;;;31.40;28.80;;;;;;5221434;28;20205;-53
2022/05/15 06:29:04;;;;;;;2.20;1.00;;;31.20;29.40;;;;;;5209610;28;20222;-53
2022/05/15 06:31:34;;;;;;;2.13;1.70;;;31.10;29.20;;;;;;5221272;28;20186;-54
2022/05/15 06:34:05;;;;;;;5.60;1.80;;;31.80;28.30;;;;;;5223841;28;20273;-53
2022/05/15 06:36:36;;;;;;;1.87;1.77;;;31.20;28.40;;;;;;5227389;28;20221;-54
2022/05/15 06:39:06;;;;;;;3.20;1.57;;;30.30;28.90;;;;;;5226524;28;20285;-55
2022/05/15 06:41:37;;;;;;;3.80;1.30;;;31.20;28.50;;;;;;5217420;28;20190;-54
2022/05/15 06:44:08;;;;;;;3.77;1.50;;;32.00;27.80;;;;;;5220843;28;20550;-53
2022/05/15 06:46:38;;;;;;;1.50;1.50;;;32.40;27.20;;;;;;5215993;28;20182;-53
2022/05/15 06:49:09;;;;;;;3.40;1.30;;;33.20;27.20;;;;;;5216317;28;20296;-53
2022/05/15 06:51:40;;;;;;;1.33;1.23;;;33.20;27.00;;;;;;5209330;28;20187;-53
2022/05/15 06:54:11;;;;;;;1.63;1.20;;;33.60;26.50;;;;;;5214300;28;20182;-54
2022/05/15 06:59:31;;;;;;;5.73;1.40;;;32.50;26.80;;;;;;5224361;28;20201;-54
2022/05/15 07:02:02;;;;;;;3.60;1.43;;;32.50;27.00;;;;;;5210341;28;20441;-53
2022/05/15 07:04:33;;;;;;;5.03;1.37;;;32.50;26.80;;;;;;5219606;28;20975;-53
2022/05/15 07:07:04;;;;;;;1.60;1.30;;;32.50;27.00;;;;;;5213369;28;20178;-54
2022/05/15 07:09:35;;;;;;;2.90;1.10;;;33.20;26.50;;;;;;5215720;28;20263;-52
2022/05/15 07:12:07;;;;;;;2.13;1.60;;;33.40;25.90;;;;;;5210439;28;20199;-54
2022/05/15 07:14:37;;;;;;;1.00;0.87;;;33.20;25.80;;;;;;5215172;28;20194;-53
2022/05/15 07:17:08;;;;;;;7.77;3.37;;;32.80;26.20;;;;;;5224801;28;20561;-54
2022/05/15 07:19:39;;;;;;;2.90;1.60;;;32.90;26.00;;;;;;5220949;28;20746;-58
2022/05/15 07:22:10;;;;;;;1.73;1.27;;;32.10;25.80;;;;;;5218002;28;20306;-54
2022/05/15 07:24:41;;;;;;;2.63;0.90;;;31.80;26.60;;;;;;5216064;28;20263;-53
2022/05/15 07:27:12;;;;;;;4.70;1.60;;;31.70;26.80;;;;;;5219874;28;20523;-55
2022/05/15 07:29:42;;;;;;;3.87;1.33;;;31.10;27.20;;;;;;5215310;28;20222;-49
2022/05/15 07:32:13;;;;;;;4.10;1.07;;;31.10;27.10;;;;;;5225656;28;20190;-53
2022/05/15 07:34:43;;;;;;;2.10;1.00;;;32.00;26.50;;;;;;5217706;28;20213;-55
2022/05/15 07:37:16;;;;;;;1.60;1.50;;;32.30;26.00;;;;;;5214214;28;21153;-55
2022/05/15 07:39:47;;;;;;;3.73;1.73;;;31.80;26.60;;;;;;5217882;28;20551;-54
2022/05/15 07:42:17;;;;;;;1.80;1.23;;;31.40;26.20;;;;;;5222528;28;20432;-53
2022/05/15 07:44:48;;;;;;;4.47;1.80;;;31.00;26.00;;;;;;5216115;28;20198;-54
2022/05/15 07:47:18;;;;;;;1.43;1.00;;;30.40;26.70;;;;;;5223283;28;20195;-54
2022/05/15 07:49:49;;;;;;;5.70;1.13;;;30.40;26.80;;;;;;5217196;28;20214;-52
2022/05/15 07:52:19;;;;;;;5.53;1.43;;;31.10;26.80;;;;;;5220955;28;20685;-55
2022/05/15 07:54:50;;;;;;;1.53;1.33;;;31.90;26.30;;;;;;5216471;28;20187;-55
2022/05/15 07:57:20;;;;;;;1.43;1.33;;;32.00;25.80;;;;;;5236531;28;20206;-55
2022/05/15 07:59:52;;;;;;;6.30;1.47;;;31.90;25.60;;;;;;5221255;28;20206;-53
2022/05/15 08:02:22;;;;;;;2.10;1.10;;;31.00;26.30;;;;;;5220428;28;20174;-50
2022/05/15 08:08:00;;;;;;;1.67;1.57;;;31.10;26.60;;;;;;5219040;28;20316;-54
2022/05/15 08:10:37;;;;;;;2.07;1.40;;;31.70;26.10;;;;;;5219929;28;20480;-52
2022/05/15 08:13:08;;;;;;;5.90;1.30;;;31.40;25.30;;;;;;5220441;28;20445;-52
2022/05/15 08:15:40;;;;;;;1.80;1.03;;;30.50;25.80;;;;;;5199430;28;20447;-51
2022/05/15 08:24:09;;;;;;;2.07;1.17;;;29.90;25.60;;;;;;5166924;28;20486;-50
2022/05/15 08:26:40;;;;;;;1.83;1.00;;;29.60;26.40;;;;;;5171515;28;20944;-52
2022/05/15 08:29:11;;;;;;;2.20;1.00;;;28.70;26.70;;;;;;5202292;28;20227;-53
2022/05/15 08:31:41;;;;;;;2.40;1.20;;;28.20;27.50;;;;;;5215901;28;20608;-52
2022/05/15 08:34:12;;;;;;;2.77;1.37;;;27.70;28.30;;;;;;5221103;28;20440;-50
2022/05/15 08:36:44;;;;;;;1.43;0.90;;;26.90;28.60;;;;;;5211200;28;20207;-52
2022/05/15 08:39:15;;;;;;;1.50;1.30;;;26.90;29.30;;;;;;5221068;28;20453;-54
2022/05/15 08:42:02;;;;;;;0.87;0.87;;;27.40;29.40;;;;;;5220811;28;20437;-52
2022/05/15 08:44:36;;;;;;;0.83;0.83;;;28.00;28.70;;;;;;5219101;28;20541;-53
2022/05/15 08:47:21;;;;;;;1.57;1.37;;;27.50;27.60;;;;;;5214856;28;20461;-53
2022/05/15 08:50:02;;;;;;;3.77;1.40;;;27.40;28.30;;;;;;5215867;28;20466;-52
2022/05/15 08:52:51;;;;;;;0.90;0.90;;;25.90;30.30;;;;;;5218142;28;21002;-50
2022/05/15 08:55:24;;;;;;;2.60;1.87;;;24.50;32.90;;;;;;5221643;28;20441;-53
2022/05/15 08:58:00;;;;;;;1.37;1.33;;;23.10;34.20;;;;;;5217514;28;20493;-51
2022/05/15 09:00:42;;;;;;;1.63;1.43;;;22.20;36.30;;;;;;5215711;28;20453;-52
2022/05/15 09:03:28;;;;;;;1.43;1.30;;;21.50;38.30;;;;;;5223380;28;20444;-52
2022/05/15 09:06:25;;;;;;;3.93;1.23;;;21.10;39.00;;;;;;5223831;28;20798;-52
2022/05/15 09:09:01;;;;;;;4.30;1.20;;;21.00;39.20;;;;;;5223412;28;20540;-53
2022/05/15 09:11:52;;;;;;;3.60;0.70;;;20.80;37.50;;;;;;5214133;28;20482;-54
2022/05/15 09:14:41;;;;;;;5.47;1.37;;;20.20;37.90;;;;;;5220037;28;20874;-51
2022/05/15 09:17:58;;;;;;;1.07;0.97;;;20.10;38.60;;;;;;5223369;28;20515;-50
2022/05/15 09:20:40;;;;;;;4.70;1.20;;;20.00;39.10;;;;;;5221287;28;20459;-54
2022/05/15 09:23:34;;;;;;;1.80;1.70;;;20.00;39.50;;;;;;5220839;28;20440;-52
2022/05/15 09:26:22;;;;;;;3.30;1.73;;;19.70;39.50;;;;;;5205630;28;20518;-51
2022/05/15 09:29:00;;;;;;;2.10;1.40;;;19.80;41.00;;;;;;5234167;23;20484;-55
2022/05/15 09:31:34;;;;;;;1.80;1.13;;;20.00;41.20;;;;;;5241919;28;20444;-56
2022/05/15 09:34:28;;;;;;;2.40;1.10;;;19.90;40.00;;;;;;5238944;28;20948;-56
2022/05/15 09:39:51;;;;;;;1.13;0.97;;;19.30;38.20;;;;;;5226843;28;20527;-53
2022/05/15 09:45:14;;;;;;;2.50;1.13;;;18.80;39.60;;;;;;5218127;28;20451;-55
2022/05/15 09:47:52;;;;;;;3.50;1.60;;;18.60;40.60;;;;;;5219387;28;20531;-54
2022/05/15 09:50:48;;;;;;;1.57;0.93;;;18.60;41.40;;;;;;5215423;28;20820;-56
2022/05/15 09:53:36;;;;;;;1.60;1.50;;;18.60;42.00;;;;;;5222219;28;20429;-56
2022/05/15 09:56:09;;;;;;;1.23;0.80;;;18.80;41.80;;;;;;5220339;28;20460;-56
2022/05/15 09:59:05;;;;;;;1.30;0.93;;;18.90;41.00;;;;;;5216247;28;20457;-54
2022/05/15 10:01:47;;;;;;;3.03;1.03;;;18.90;40.70;;;;;;5214218;28;20983;-55
2022/05/15 10:04:27;;;;;;;18.47;12.67;;;18.90;40.00;;;;;;5214514;28;20440;-53
2022/05/15 10:07:02;;;;;;;2.30;1.77;;;18.80;39.80;;;;;;5209504;28;20792;-55
2022/05/15 10:09:38;;;;;;;2.30;1.40;;;18.90;40.20;;;;;;5220976;28;20530;-56
2022/05/15 10:12:30;;;;;;;0.70;0.70;;;19.00;39.40;;;;;;5222198;28;20522;-56
2022/05/15 10:15:08;;;;;;;1.27;0.90;;;19.10;38.70;;;;;;5219577;28;21097;-56
2022/05/15 10:17:50;;;;;;;0.93;0.90;;;18.80;38.60;;;;;;5215262;28;20576;-56
2022/05/15 10:20:29;;;;;;;1.33;1.00;;;18.60;39.20;;;;;;5220350;28;20459;-56
2022/05/15 10:23:06;;;;;;;0.97;0.70;;;18.50;39.40;;;;;;5218506;28;20433;-54
2022/05/15 10:25:48;;;;;;;0.77;0.67;;;18.60;39.40;;;;;;5219350;28;20448;-57
2022/05/15 10:28:32;;;;;;;4.10;1.00;;;18.60;39.40;;;;;;5217369;28;20453;-54
2022/05/15 10:31:22;;;;;;;3.13;1.00;;;18.60;39.20;;;;;;5214527;28;20448;-51
2022/05/15 10:33:56;;;;;;;1.50;1.40;;;18.70;39.70;;;;;;5217012;28;20437;-54
2022/05/15 10:36:45;;;;;;;0.47;0.47;;;18.80;39.20;;;;;;5230047;28;20468;-56
2022/05/15 10:39:41;;;;;;;4.53;1.33;;;19.00;38.70;;;;;;5218611;28;20475;-56
2022/05/15 10:42:40;;;;;;;4.30;1.60;;;19.00;37.70;;;;;;5219891;28;20462;-56
2022/05/15 10:45:19;;;;;;;1.13;0.63;;;19.10;38.20;;;;;;5220793;28;20456;-57
2022/05/15 10:48:02;;;;;;;1.60;1.50;;;19.20;37.90;;;;;;5213596;28;20440;-57
2022/05/15 10:50:52;;;;;;;3.17;0.80;;;19.20;37.10;;;;;;5220261;28;20949;-57
2022/05/15 10:59:49;;;;;;;0.50;0.50;;;19.30;37.60;;;;;;5221668;28;20476;-55
2022/05/15 11:02:41;;;;;;;2.03;1.80;;;19.40;37.50;;;;;;5218146;28;20529;-53
2022/05/15 11:05:28;;;;;;;1.27;0.80;;;19.40;37.20;;;;;;5216295;28;20440;-57
2022/05/15 11:08:22;;;;;;;1.93;1.30;;;19.30;36.40;;;;;;5222608;28;20433;-58
2022/05/15 11:11:21;;;;;;;5.60;4.40;;;19.30;36.90;;;;;;5212328;28;20468;-56
2022/05/15 11:13:58;;;;;;;0.90;0.90;;;19.30;37.30;;;;;;5220411;28;20567;-58
2022/05/15 11:17:07;;;;;;;1.63;1.20;;;19.40;36.20;;;;;;5218453;28;20559;-53
2022/05/15 11:19:40;;;;;;;0.70;0.70;;;19.30;36.10;;;;;;5215479;28;20479;-56
2022/05/15 11:22:37;;;;;;;2.03;0.60;;;19.40;36.30;;;;;;5222949;28;20437;-54
2022/05/15 11:25:13;;;;;;;4.53;2.07;;;19.30;35.80;;;;;;5221496;28;20429;-56
2022/05/15 11:27:49;;;;;;;2.33;1.23;;;19.40;37.10;;;;;;5216961;28;20441;-56
2022/05/15 11:30:24;;;;;;;2.93;0.80;;;19.50;36.40;;;;;;5221941;28;20533;-54
2022/05/15 11:32:55;;;;;;;1.83;1.17;;;19.70;37.30;;;;;;5225499;28;20438;-58
2022/05/15 11:35:29;;;;;;;0.70;0.53;;;19.80;37.10;;;;;;5226761;28;20433;-56
2022/05/15 11:38:11;;;;;;;1.73;1.37;;;19.80;35.30;;;;;;5222939;28;20217;-54
2022/05/15 11:40:48;;;;;;;1.23;0.97;;;19.80;36.50;;;;;;5223355;28;20488;-56
2022/05/15 11:43:30;;;;;;;4.70;0.60;;;19.80;37.10;;;;;;5221347;28;20432;-56
2022/05/15 11:46:08;;;;;;;3.53;1.23;;;19.70;36.10;;;;;;5210209;28;20453;-55
2022/05/15 11:48:39;;;;;;;1.17;1.00;;;19.70;36.20;;;;;;5220754;28;20434;-55
2022/05/15 11:51:15;;;;;;;1.27;0.70;;;19.70;36.20;;;;;;5224227;28;20442;-53
2022/05/15 11:54:06;;;;;;;0.93;0.93;;;19.70;35.80;;;;;;5216603;28;20607;-57
2022/05/15 11:56:52;;;;;;;3.07;1.20;;;19.70;36.70;;;;;;5220099;28;20475;-56
2022/05/15 11:59:25;;;;;;;1.20;0.73;;;19.60;36.40;;;;;;5222701;28;20479;-56
2022/05/15 12:01:58;;;;;;;0.70;0.70;;;19.60;36.80;;;;;;5236164;28;20487;-56
2022/05/15 12:04:35;;;;;;;0.90;0.90;;;19.70;36.70;;;;;;5217563;28;20477;-56
2022/05/15 12:07:09;;;;;;;0.80;0.80;;;19.70;36.20;;;;;;5224682;28;20959;-57
2022/05/15 12:09:39;;;;;;;1.27;0.83;;;19.70;36.60;;;;;;5223142;28;20468;-57
2022/05/15 12:12:28;;;;;;;3.60;0.77;;;19.80;36.10;;;;;;5218901;28;20464;-56
2022/05/15 12:15:24;;;;;;;1.70;1.17;;;20.00;36.30;;;;;;5223015;28;20203;-57
2022/05/15 12:17:59;;;;;;;2.77;0.70;;;19.80;36.00;;;;;;5210744;28;20462;-56
2022/05/15 12:20:29;;;;;;;1.07;0.80;;;20.00;36.20;;;;;;5219031;28;20521;-57
2022/05/15 12:23:13;;;;;;;0.57;0.57;;;20.10;36.20;;;;;;5214471;28;21089;-57
2022/05/15 12:26:00;;;;;;;1.57;0.90;;;20.20;35.50;;;;;;5219439;28;20190;-57
2022/05/15 12:28:55;;;;;;;1.27;0.90;;;20.20;35.70;;;;;;5218454;28;20440;-57
2022/05/15 12:31:33;;;;;;;2.73;0.90;;;20.00;36.30;;;;;;5235460;28;20469;-55
2022/05/15 12:34:34;;;;;;;4.00;1.50;;;19.80;36.50;;;;;;5214470;28;20521;-55
2022/05/15 12:37:09;;;;;;;0.80;0.80;;;19.60;36.70;;;;;;5218299;28;20465;-55
2022/05/15 12:39:45;;;;;;;3.07;1.10;;;19.60;37.20;;;;;;5215496;28;20501;-55
2022/05/15 12:42:33;;;;;;;4.27;1.67;;;19.70;37.40;;;;;;5216059;28;20445;-53
2022/05/15 12:45:11;;;;;;;1.73;0.90;;;19.70;37.60;;;;;;5213195;28;20441;-54
2022/05/15 12:47:42;;;;;;;1.00;0.73;;;19.80;37.80;;;;;;5220241;28;20795;-56
2022/05/15 12:50:17;;;;;;;0.90;0.90;;;19.80;36.70;;;;;;5217389;28;20538;-55
2022/05/15 12:52:56;;;;;;;4.40;2.60;;;19.90;36.60;;;;;;5213164;28;20202;-55
2022/05/15 12:55:33;;;;;;;0.73;0.73;;;20.10;36.90;;;;;;5214661;28;20783;-58
2022/05/15 12:58:07;;;;;;;1.30;1.17;;;20.30;36.70;;;;;;5224548;28;20823;-57
2022/05/15 13:00:42;;;;;;;1.20;1.10;;;20.40;37.10;;;;;;5218849;28;20509;-57
2022/05/15 13:03:13;;;;;;;5.63;1.40;;;20.40;36.60;;;;;;5221508;28;20766;-53
2022/05/15 13:05:56;;;;;;;1.40;1.10;;;20.50;36.70;;;;;;5220007;28;20449;-55
2022/05/15 13:08:43;;;;;;;1.13;0.60;;;20.50;36.60;;;;;;5214037;28;20269;-54
2022/05/15 13:11:22;;;;;;;4.70;3.70;;;20.50;36.40;;;;;;5214032;28;20496;-55
2022/05/15 13:13:55;;;;;;;1.33;1.23;;;20.60;36.60;;;;;;5213633;28;20831;-57
2022/05/15 13:16:27;;;;;;;1.10;1.00;;;20.50;36.40;;;;;;5211930;28;20504;-56
2022/05/15 13:18:58;;;;;;;0.60;0.60;;;20.50;36.10;;;;;;5218886;28;20469;-56
2022/05/15 13:21:37;;;;;;;1.33;1.00;;;20.50;36.00;;;;;;5217609;28;21379;-54
2022/05/15 13:24:09;;;;;;;1.00;1.00;;;20.50;36.30;;;;;;5213660;28;20426;-52
2022/05/15 13:26:44;;;;;;;6.13;2.80;;;20.50;37.10;;;;;;5215795;28;20452;-55
2022/05/15 13:29:18;;;;;;;2.87;1.43;;;20.60;36.60;;;;;;5205978;28;20575;-54
2022/05/15 13:31:53;;;;;;;1.83;1.40;;;20.70;36.80;;;;;;5213351;28;20503;-57
2022/05/15 13:34:27;;;;;;;9.40;7.60;;;20.90;36.00;;;;;;5212231;28;20476;-54
2022/05/15 13:37:03;;;;;;;2.23;1.20;;;21.00;35.60;;;;;;5219458;28;20542;-56
2022/05/15 13:45:21;;;;;;;1.37;1.37;;;20.80;35.10;;;;;;5214616;28;20448;-55
2022/05/15 13:48:02;;;;;;;2.60;0.80;;;20.90;35.50;;;;;;5219514;28;20459;-55
2022/05/15 13:50:42;;;;;;;1.20;1.20;;;20.90;35.30;;;;;;5212751;28;20561;-55
2022/05/15 13:53:35;;;;;;;1.73;1.40;;;21.00;35.40;;;;;;5211262;28;20768;-56
2022/05/15 13:56:08;;;;;;;1.10;1.00;;;20.90;35.30;;;;;;5221097;28;20471;-54
2022/05/15 13:58:44;;;;;;;0.50;0.50;;;21.00;36.20;;;;;;5211262;28;20453;-55
2022/05/15 14:01:32;;;;;;;2.00;1.57;;;21.20;36.20;;;;;;5216449;28;20439;-56